sensor_id;sensor_type;location;lat;lon;timestamp;pressure;altitude;pressure_sealevel;temperature;humidity
71948;BME280;63257;55.082;38.772;2023-12-07T00:01:06;101719.28;;;-7.63;70.66
71948;BME280;63257;55.082;38.772;2023-12-07T00:03:33;101716.28;;;-7.55;70.10
71948;BME280;63257;55.082;38.772;2023-12-07T00:05:59;101695.81;;;-7.71;69.66
71948;BME280;63257;55.082;38.772;2023-12-07T00:08:25;101716.53;;;-7.50;69.52
71948;BME280;63257;55.082;38.772;2023-12-07T00:10:51;101695.75;;;-7.73;69.59
71948;BME280;63257;55.082;38.772;2023-12-07T00:13:17;101694.44;;;-7.64;69.29
71948;BME280;63257;55.082;38.772;2023-12-07T00:15:43;101693.84;;;-7.77;69.16
71948;BME280;63257;55.082;38.772;2023-12-07T00:18:09;101723.00;;;-7.75;69.42
71948;BME280;63257;55.082;38.772;2023-12-07T00:20:35;101723.41;;;-7.84;69.81
71948;BME280;63257;55.082;38.772;2023-12-07T00:23:00;101732.31;;;-7.93;70.07
71948;BME280;63257;55.082;38.772;2023-12-07T00:25:26;101722.00;;;-7.95;70.65
71948;BME280;63257;55.082;38.772;2023-12-07T00:27:52;101725.50;;;-7.93;70.47
71948;BME280;63257;55.082;38.772;2023-12-07T00:30:18;101737.06;;;-8.01;70.29
71948;BME280;63257;55.082;38.772;2023-12-07T00:32:44;101698.13;;;-8.28;70.24
71948;BME280;63257;55.082;38.772;2023-12-07T00:35:10;101728.50;;;-8.18;70.26
71948;BME280;63257;55.082;38.772;2023-12-07T00:37:36;101717.97;;;-8.24;70.84
71948;BME280;63257;55.082;38.772;2023-12-07T00:40:03;101696.50;;;-8.43;70.56
71948;BME280;63257;55.082;38.772;2023-12-07T00:42:30;101719.56;;;-8.26;70.11
71948;BME280;63257;55.082;38.772;2023-12-07T00:44:56;101694.75;;;-8.60;70.34
71948;BME280;63257;55.082;38.772;2023-12-07T00:47:22;101710.94;;;-8.61;70.40
71948;BME280;63257;55.082;38.772;2023-12-07T00:49:48;101729.03;;;-8.58;71.01
71948;BME280;63257;55.082;38.772;2023-12-07T00:52:14;101731.00;;;-8.69;70.67
71948;BME280;63257;55.082;38.772;2023-12-07T00:54:40;101731.06;;;-8.84;71.01
71948;BME280;63257;55.082;38.772;2023-12-07T00:57:06;101738.59;;;-8.87;70.83
71948;BME280;63257;55.082;38.772;2023-12-07T00:59:32;101740.97;;;-8.90;70.93
71948;BME280;63257;55.082;38.772;2023-12-07T01:02:06;101722.28;;;-9.04;71.11
71948;BME280;63257;55.082;38.772;2023-12-07T01:04:33;101738.63;;;-9.02;70.97
71948;BME280;63257;55.082;38.772;2023-12-07T01:06:59;101713.69;;;-9.21;70.67
71948;BME280;63257;55.082;38.772;2023-12-07T01:09:26;101747.25;;;-9.00;70.98
71948;BME280;63257;55.082;38.772;2023-12-07T01:11:52;101725.47;;;-9.08;70.84
71948;BME280;63257;55.082;38.772;2023-12-07T01:14:18;101737.56;;;-9.06;71.07
71948;BME280;63257;55.082;38.772;2023-12-07T01:16:44;101728.16;;;-9.07;71.11
71948;BME280;63257;55.082;38.772;2023-12-07T01:19:11;101750.59;;;-8.86;70.86
71948;BME280;63257;55.082;38.772;2023-12-07T01:21:41;101733.34;;;-9.05;70.47
71948;BME280;63257;55.082;38.772;2023-12-07T01:24:08;101737.75;;;-9.02;70.71
71948;BME280;63257;55.082;38.772;2023-12-07T01:26:34;101755.56;;;-9.04;70.93
71948;BME280;63257;55.082;38.772;2023-12-07T01:29:00;101762.28;;;-9.06;70.69
71948;BME280;63257;55.082;38.772;2023-12-07T01:31:26;101759.97;;;-9.01;70.67
71948;BME280;63257;55.082;38.772;2023-12-07T01:33:52;101761.28;;;-9.08;70.45
71948;BME280;63257;55.082;38.772;2023-12-07T01:36:18;101738.13;;;-9.26;70.14
71948;BME280;63257;55.082;38.772;2023-12-07T01:38:44;101742.47;;;-9.25;70.40
71948;BME280;63257;55.082;38.772;2023-12-07T01:41:10;101751.53;;;-9.15;70.68
71948;BME280;63257;55.082;38.772;2023-12-07T01:43:36;101741.16;;;-9.33;70.13
71948;BME280;63257;55.082;38.772;2023-12-07T01:46:02;101772.38;;;-9.24;70.11
71948;BME280;63257;55.082;38.772;2023-12-07T01:48:29;101761.69;;;-9.32;69.94
71948;BME280;63257;55.082;38.772;2023-12-07T01:50:57;101756.66;;;-9.30;69.85
71948;BME280;63257;55.082;38.772;2023-12-07T01:53:24;101748.50;;;-9.40;69.97
71948;BME280;63257;55.082;38.772;2023-12-07T01:55:52;101749.28;;;-9.41;70.22
71948;BME280;63257;55.082;38.772;2023-12-07T01:58:19;101760.22;;;-9.43;70.16
71948;BME280;63257;55.082;38.772;2023-12-07T02:00:46;101784.63;;;-9.33;70.01
71948;BME280;63257;55.082;38.772;2023-12-07T02:03:12;101756.59;;;-9.47;70.29
71948;BME280;63257;55.082;38.772;2023-12-07T02:05:42;101780.56;;;-9.30;70.38
71948;BME280;63257;55.082;38.772;2023-12-07T02:08:09;101747.34;;;-9.45;69.88
71948;BME280;63257;55.082;38.772;2023-12-07T02:10:35;101755.97;;;-9.43;69.84
71948;BME280;63257;55.082;38.772;2023-12-07T02:13:01;101777.47;;;-9.24;69.19
71948;BME280;63257;55.082;38.772;2023-12-07T02:15:27;101777.31;;;-9.27;68.83
71948;BME280;63257;55.082;38.772;2023-12-07T02:21:25;101789.50;;;-9.38;69.02
71948;BME280;63257;55.082;38.772;2023-12-07T02:23:54;101767.72;;;-9.46;68.77
71948;BME280;63257;55.082;38.772;2023-12-07T02:26:21;101803.06;;;-9.39;68.67
71948;BME280;63257;55.082;38.772;2023-12-07T02:28:48;101790.97;;;-9.57;68.80
71948;BME280;63257;55.082;38.772;2023-12-07T02:31:14;101778.81;;;-9.61;68.56
71948;BME280;63257;55.082;38.772;2023-12-07T02:33:40;101803.66;;;-9.58;68.83
71948;BME280;63257;55.082;38.772;2023-12-07T02:36:06;101804.38;;;-9.61;68.71
71948;BME280;63257;55.082;38.772;2023-12-07T02:38:32;101776.16;;;-9.62;68.26
71948;BME280;63257;55.082;38.772;2023-12-07T02:40:59;101787.53;;;-9.57;67.99
71948;BME280;63257;55.082;38.772;2023-12-07T02:43:26;101806.41;;;-9.55;68.36
71948;BME280;63257;55.082;38.772;2023-12-07T02:45:53;101815.31;;;-9.48;67.84
71948;BME280;63257;55.082;38.772;2023-12-07T02:48:20;101803.44;;;-9.48;67.83
71948;BME280;63257;55.082;38.772;2023-12-07T02:50:46;101806.94;;;-9.46;67.64
71948;BME280;63257;55.082;38.772;2023-12-07T02:53:12;101818.78;;;-9.48;67.76
71948;BME280;63257;55.082;38.772;2023-12-07T02:55:38;101812.59;;;-9.51;67.94
71948;BME280;63257;55.082;38.772;2023-12-07T02:58:04;101791.13;;;-9.53;68.02
71948;BME280;63257;55.082;38.772;2023-12-07T03:00:30;101799.88;;;-9.50;67.77
71948;BME280;63257;55.082;38.772;2023-12-07T03:02:56;101797.25;;;-9.51;68.24
71948;BME280;63257;55.082;38.772;2023-12-07T03:05:22;101806.41;;;-9.55;68.34
71948;BME280;63257;55.082;38.772;2023-12-07T03:07:51;101816.28;;;-9.46;68.35
71948;BME280;63257;55.082;38.772;2023-12-07T03:10:17;101825.53;;;-9.33;68.22
71948;BME280;63257;55.082;38.772;2023-12-07T03:12:44;101827.75;;;-9.40;68.10
71948;BME280;63257;55.082;38.772;2023-12-07T03:15:10;101827.47;;;-9.29;68.38
71948;BME280;63257;55.082;38.772;2023-12-07T03:17:36;101832.69;;;-9.28;68.20
71948;BME280;63257;55.082;38.772;2023-12-07T03:20:02;101843.19;;;-9.23;68.44
71948;BME280;63257;55.082;38.772;2023-12-07T03:22:29;101836.41;;;-9.23;68.53
71948;BME280;63257;55.082;38.772;2023-12-07T03:24:55;101818.13;;;-9.29;67.73
71948;BME280;63257;55.082;38.772;2023-12-07T03:27:21;101843.72;;;-9.14;68.17
71948;BME280;63257;55.082;38.772;2023-12-07T03:29:47;101848.13;;;-9.11;68.55
71948;BME280;63257;55.082;38.772;2023-12-07T03:32:12;101844.78;;;-9.10;68.29
71948;BME280;63257;55.082;38.772;2023-12-07T03:34:38;101847.59;;;-9.06;68.45
71948;BME280;63257;55.082;38.772;2023-12-07T03:37:04;101824.06;;;-9.15;68.67
71948;BME280;63257;55.082;38.772;2023-12-07T03:39:30;101822.63;;;-9.25;68.61
71948;BME280;63257;55.082;38.772;2023-12-07T03:41:58;101828.09;;;-9.04;67.89
71948;BME280;63257;55.082;38.772;2023-12-07T03:44:24;101820.69;;;-9.14;68.43
71948;BME280;63257;55.082;38.772;2023-12-07T03:46:52;101838.50;;;-9.00;68.13
71948;BME280;63257;55.082;38.772;2023-12-07T03:49:19;101842.38;;;-9.07;68.06
71948;BME280;63257;55.082;38.772;2023-12-07T03:51:45;101845.22;;;-9.02;67.84
71948;BME280;63257;55.082;38.772;2023-12-07T03:54:11;101839.13;;;-9.05;68.41
71948;BME280;63257;55.082;38.772;2023-12-07T03:56:37;101819.09;;;-9.12;68.06
71948;BME280;63257;55.082;38.772;2023-12-07T03:59:03;101834.63;;;-9.09;68.22
71948;BME280;63257;55.082;38.772;2023-12-07T04:01:29;101826.63;;;-9.15;67.97
71948;BME280;63257;55.082;38.772;2023-12-07T04:03:56;101817.72;;;-9.22;68.09
71948;BME280;63257;55.082;38.772;2023-12-07T04:06:23;101828.34;;;-9.14;68.21
71948;BME280;63257;55.082;38.772;2023-12-07T04:08:49;101829.69;;;-9.21;68.02
71948;BME280;63257;55.082;38.772;2023-12-07T04:11:15;101845.94;;;-9.05;67.81
71948;BME280;63257;55.082;38.772;2023-12-07T04:13:42;101850.97;;;-9.07;67.45
71948;BME280;63257;55.082;38.772;2023-12-07T04:16:09;101825.38;;;-9.22;67.71
71948;BME280;63257;55.082;38.772;2023-12-07T04:18:36;101829.69;;;-9.21;67.90
71948;BME280;63257;55.082;38.772;2023-12-07T04:21:02;101848.19;;;-9.10;67.86
71948;BME280;63257;55.082;38.772;2023-12-07T04:23:28;101849.03;;;-9.11;69.05
71948;BME280;63257;55.082;38.772;2023-12-07T04:25:54;101849.72;;;-9.13;68.50
71948;BME280;63257;55.082;38.772;2023-12-07T04:28:20;101842.75;;;-9.16;68.38
71948;BME280;63257;55.082;38.772;2023-12-07T04:30:46;101857.13;;;-9.03;68.38
71948;BME280;63257;55.082;38.772;2023-12-07T04:33:12;101838.78;;;-9.11;68.32
71948;BME280;63257;55.082;38.772;2023-12-07T04:35:38;101861.06;;;-8.93;68.38
71948;BME280;63257;55.082;38.772;2023-12-07T04:38:03;101870.34;;;-8.95;68.08
71948;BME280;63257;55.082;38.772;2023-12-07T04:40:29;101848.81;;;-9.14;68.65
71948;BME280;63257;55.082;38.772;2023-12-07T04:42:55;101855.88;;;-9.10;68.55
71948;BME280;63257;55.082;38.772;2023-12-07T04:45:21;101877.13;;;-8.96;68.65
71948;BME280;63257;55.082;38.772;2023-12-07T04:47:47;101883.06;;;-8.97;68.72
71948;BME280;63257;55.082;38.772;2023-12-07T04:50:14;101870.97;;;-8.99;67.98
71948;BME280;63257;55.082;38.772;2023-12-07T04:52:40;101869.75;;;-8.91;68.00
71948;BME280;63257;55.082;38.772;2023-12-07T04:55:06;101888.59;;;-8.74;67.60
71948;BME280;63257;55.082;38.772;2023-12-07T04:57:34;101894.50;;;-8.75;67.33
71948;BME280;63257;55.082;38.772;2023-12-07T05:00:04;101876.34;;;-8.95;67.46
71948;BME280;63257;55.082;38.772;2023-12-07T05:02:35;101875.56;;;-8.94;67.11
71948;BME280;63257;55.082;38.772;2023-12-07T05:05:01;101896.91;;;-8.78;66.48
71948;BME280;63257;55.082;38.772;2023-12-07T05:07:30;101903.72;;;-8.79;67.28
71948;BME280;63257;55.082;38.772;2023-12-07T05:09:56;101902.56;;;-8.84;67.20
71948;BME280;63257;55.082;38.772;2023-12-07T05:12:21;101902.09;;;-8.92;67.54
71948;BME280;63257;55.082;38.772;2023-12-07T05:14:47;101893.47;;;-9.09;67.69
71948;BME280;63257;55.082;38.772;2023-12-07T05:17:13;101920.75;;;-8.94;67.06
71948;BME280;63257;55.082;38.772;2023-12-07T05:19:40;101918.91;;;-8.97;67.38
71948;BME280;63257;55.082;38.772;2023-12-07T05:22:05;101917.03;;;-8.99;67.51
71948;BME280;63257;55.082;38.772;2023-12-07T05:24:31;101918.81;;;-8.98;67.52
71948;BME280;63257;55.082;38.772;2023-12-07T05:27:00;101936.91;;;-8.95;66.68
71948;BME280;63257;55.082;38.772;2023-12-07T05:29:26;101935.38;;;-8.92;66.57
71948;BME280;63257;55.082;38.772;2023-12-07T05:31:52;101940.00;;;-8.86;66.70
71948;BME280;63257;55.082;38.772;2023-12-07T05:34:18;101917.47;;;-8.92;66.53
71948;BME280;63257;55.082;38.772;2023-12-07T05:36:44;101932.94;;;-8.90;67.05
71948;BME280;63257;55.082;38.772;2023-12-07T05:39:12;101941.66;;;-8.87;67.39
71948;BME280;63257;55.082;38.772;2023-12-07T05:41:38;101918.63;;;-9.01;67.08
71948;BME280;63257;55.082;38.772;2023-12-07T05:44:04;101942.19;;;-8.92;67.10
71948;BME280;63257;55.082;38.772;2023-12-07T05:46:31;101937.84;;;-8.93;67.10
71948;BME280;63257;55.082;38.772;2023-12-07T05:48:57;101924.34;;;-9.06;67.32
71948;BME280;63257;55.082;38.772;2023-12-07T05:51:23;101945.28;;;-8.98;67.37
71948;BME280;63257;55.082;38.772;2023-12-07T05:53:50;101917.72;;;-9.17;67.72
71948;BME280;63257;55.082;38.772;2023-12-07T05:56:19;101955.06;;;-8.91;67.83
71948;BME280;63257;55.082;38.772;2023-12-07T05:58:48;101927.53;;;-8.95;66.99
71948;BME280;63257;55.082;38.772;2023-12-07T06:01:17;101959.50;;;-8.88;66.65
71948;BME280;63257;55.082;38.772;2023-12-07T06:03:44;101958.09;;;-8.83;66.24
71948;BME280;63257;55.082;38.772;2023-12-07T06:06:11;101937.25;;;-8.89;66.68
71948;BME280;63257;55.082;38.772;2023-12-07T06:08:38;101955.53;;;-8.83;66.85
71948;BME280;63257;55.082;38.772;2023-12-07T06:11:04;101945.38;;;-8.81;66.51
71948;BME280;63257;55.082;38.772;2023-12-07T06:13:31;101948.88;;;-8.79;66.69
71948;BME280;63257;55.082;38.772;2023-12-07T06:15:57;101954.53;;;-8.85;66.48
71948;BME280;63257;55.082;38.772;2023-12-07T06:18:23;101938.22;;;-8.87;66.55
71948;BME280;63257;55.082;38.772;2023-12-07T06:20:49;101926.13;;;-8.90;66.40
71948;BME280;63257;55.082;38.772;2023-12-07T06:23:15;101951.09;;;-8.71;66.22
71948;BME280;63257;55.082;38.772;2023-12-07T06:25:40;101952.78;;;-8.71;66.38
71948;BME280;63257;55.082;38.772;2023-12-07T06:28:07;101952.69;;;-8.73;66.76
71948;BME280;63257;55.082;38.772;2023-12-07T06:30:33;101929.03;;;-8.83;66.38
71948;BME280;63257;55.082;38.772;2023-12-07T06:33:01;101947.47;;;-8.89;66.09
71948;BME280;63257;55.082;38.772;2023-12-07T06:35:27;101935.06;;;-8.83;66.60
71948;BME280;63257;55.082;38.772;2023-12-07T06:37:53;101955.06;;;-8.76;66.03
71948;BME280;63257;55.082;38.772;2023-12-07T06:40:19;101911.94;;;-8.99;66.52
71948;BME280;63257;55.082;38.772;2023-12-07T06:42:46;101959.94;;;-8.80;66.36
71948;BME280;63257;55.082;38.772;2023-12-07T06:45:14;101959.03;;;-8.81;66.63
71948;BME280;63257;55.082;38.772;2023-12-07T06:47:43;101936.38;;;-8.90;66.59
71948;BME280;63257;55.082;38.772;2023-12-07T06:50:09;101965.31;;;-8.76;66.51
71948;BME280;63257;55.082;38.772;2023-12-07T06:52:37;101965.59;;;-8.86;66.12
71948;BME280;63257;55.082;38.772;2023-12-07T06:55:03;101960.25;;;-9.04;66.79
71948;BME280;63257;55.082;38.772;2023-12-07T06:57:30;101957.00;;;-9.01;66.56
71948;BME280;63257;55.082;38.772;2023-12-07T06:59:56;101963.09;;;-9.14;67.06
71948;BME280;63257;55.082;38.772;2023-12-07T07:02:22;101960.41;;;-9.31;67.51
71948;BME280;63257;55.082;38.772;2023-12-07T07:04:51;101973.03;;;-9.34;67.71
71948;BME280;63257;55.082;38.772;2023-12-07T07:07:17;101975.28;;;-9.39;67.72
71948;BME280;63257;55.082;38.772;2023-12-07T07:09:43;101975.88;;;-9.43;68.12
71948;BME280;63257;55.082;38.772;2023-12-07T07:12:09;101966.69;;;-9.54;68.08
71948;BME280;63257;55.082;38.772;2023-12-07T07:14:35;101978.50;;;-9.56;68.17
71948;BME280;63257;55.082;38.772;2023-12-07T07:17:01;101944.91;;;-9.76;68.23
71948;BME280;63257;55.082;38.772;2023-12-07T07:19:27;101951.81;;;-9.75;68.20
71948;BME280;63257;55.082;38.772;2023-12-07T07:21:54;101973.69;;;-9.65;68.63
71948;BME280;63257;55.082;38.772;2023-12-07T07:24:20;101969.25;;;-9.54;68.47
71948;BME280;63257;55.082;38.772;2023-12-07T07:26:46;101953.47;;;-9.47;67.85
71948;BME280;63257;55.082;38.772;2023-12-07T07:29:12;101934.56;;;-9.64;67.26
71948;BME280;63257;55.082;38.772;2023-12-07T07:31:38;101937.91;;;-9.65;67.93
71948;BME280;63257;55.082;38.772;2023-12-07T07:34:04;101971.47;;;-9.45;68.06
71948;BME280;63257;55.082;38.772;2023-12-07T07:36:30;101954.16;;;-9.49;67.37
71948;BME280;63257;55.082;38.772;2023-12-07T07:38:55;101969.03;;;-9.44;67.49
71948;BME280;63257;55.082;38.772;2023-12-07T07:41:21;101959.00;;;-9.54;67.54
71948;BME280;63257;55.082;38.772;2023-12-07T07:43:47;101969.34;;;-9.52;68.27
71948;BME280;63257;55.082;38.772;2023-12-07T07:46:14;101961.56;;;-9.54;68.02
71948;BME280;63257;55.082;38.772;2023-12-07T07:48:40;101977.31;;;-9.48;68.05
71948;BME280;63257;55.082;38.772;2023-12-07T07:51:06;101962.66;;;-9.50;67.86
71948;BME280;63257;55.082;38.772;2023-12-07T07:53:32;101970.25;;;-9.52;68.25
71948;BME280;63257;55.082;38.772;2023-12-07T07:55:58;101964.13;;;-9.54;68.21
71948;BME280;63257;55.082;38.772;2023-12-07T07:58:24;101967.94;;;-9.47;68.29
71948;BME280;63257;55.082;38.772;2023-12-07T08:00:49;101971.72;;;-9.56;68.52
71948;BME280;63257;55.082;38.772;2023-12-07T08:03:16;101967.59;;;-9.39;68.31
71948;BME280;63257;55.082;38.772;2023-12-07T08:05:42;101950.66;;;-9.51;67.93
71948;BME280;63257;55.082;38.772;2023-12-07T08:08:08;101961.22;;;-9.45;67.73
71948;BME280;63257;55.082;38.772;2023-12-07T08:10:34;101961.47;;;-9.56;68.39
71948;BME280;63257;55.082;38.772;2023-12-07T08:13:00;101961.41;;;-9.57;68.55
71948;BME280;63257;55.082;38.772;2023-12-07T08:15:26;101954.59;;;-9.57;68.38
71948;BME280;63257;55.082;38.772;2023-12-07T08:17:52;101925.38;;;-9.75;68.34
71948;BME280;63257;55.082;38.772;2023-12-07T08:20:18;101949.06;;;-9.78;68.56
71948;BME280;63257;55.082;38.772;2023-12-07T08:22:43;101932.41;;;-9.99;68.81
71948;BME280;63257;55.082;38.772;2023-12-07T08:25:10;101981.59;;;-9.75;68.89
71948;BME280;63257;55.082;38.772;2023-12-07T08:27:37;101955.06;;;-9.91;68.92
71948;BME280;63257;55.082;38.772;2023-12-07T08:30:04;101976.06;;;-9.68;69.19
71948;BME280;63257;55.082;38.772;2023-12-07T08:32:33;101971.47;;;-9.74;68.69
71948;BME280;63257;55.082;38.772;2023-12-07T08:34:59;101977.44;;;-9.60;68.59
71948;BME280;63257;55.082;38.772;2023-12-07T08:37:25;101967.28;;;-9.58;68.14
71948;BME280;63257;55.082;38.772;2023-12-07T08:39:51;101962.50;;;-9.67;67.61
71948;BME280;63257;55.082;38.772;2023-12-07T08:42:17;101972.66;;;-9.53;68.11
71948;BME280;63257;55.082;38.772;2023-12-07T08:44:43;101976.22;;;-9.51;67.59
71948;BME280;63257;55.082;38.772;2023-12-07T08:47:10;101981.00;;;-9.43;67.68
71948;BME280;63257;55.082;38.772;2023-12-07T08:49:36;101966.16;;;-9.48;67.63
71948;BME280;63257;55.082;38.772;2023-12-07T08:52:02;101977.69;;;-9.55;67.49
71948;BME280;63257;55.082;38.772;2023-12-07T08:54:28;101958.41;;;-9.50;67.67
71948;BME280;63257;55.082;38.772;2023-12-07T08:56:55;101946.75;;;-9.60;67.43
71948;BME280;63257;55.082;38.772;2023-12-07T08:59:21;101978.53;;;-9.41;67.35
71948;BME280;63257;55.082;38.772;2023-12-07T09:01:47;101989.16;;;-9.35;67.43
71948;BME280;63257;55.082;38.772;2023-12-07T09:04:13;101983.16;;;-9.35;67.27
71948;BME280;63257;55.082;38.772;2023-12-07T09:06:38;101980.38;;;-9.39;67.09
71948;BME280;63257;55.082;38.772;2023-12-07T09:09:04;101954.81;;;-9.39;66.63
71948;BME280;63257;55.082;38.772;2023-12-07T09:11:30;101982.22;;;-9.23;66.52
71948;BME280;63257;55.082;38.772;2023-12-07T09:13:57;101942.56;;;-9.44;66.23
71948;BME280;63257;55.082;38.772;2023-12-07T09:16:23;101958.72;;;-9.30;67.64
71948;BME280;63257;55.082;38.772;2023-12-07T09:18:50;101957.75;;;-9.32;66.89
71948;BME280;63257;55.082;38.772;2023-12-07T09:21:16;101971.19;;;-9.22;66.34
71948;BME280;63257;55.082;38.772;2023-12-07T09:23:42;101976.47;;;-9.18;66.25
71948;BME280;63257;55.082;38.772;2023-12-07T09:26:08;101970.13;;;-9.25;66.36
71948;BME280;63257;55.082;38.772;2023-12-07T09:28:34;101974.00;;;-9.17;66.24
71948;BME280;63257;55.082;38.772;2023-12-07T09:31:00;101977.97;;;-9.22;66.16
71948;BME280;63257;55.082;38.772;2023-12-07T09:33:26;101966.78;;;-9.24;66.17
71948;BME280;63257;55.082;38.772;2023-12-07T09:35:52;101973.94;;;-9.18;66.12
71948;BME280;63257;55.082;38.772;2023-12-07T09:38:18;101950.69;;;-9.36;65.74
71948;BME280;63257;55.082;38.772;2023-12-07T09:40:45;101965.38;;;-9.19;66.52
71948;BME280;63257;55.082;38.772;2023-12-07T09:43:11;101952.59;;;-9.19;65.81
71948;BME280;63257;55.082;38.772;2023-12-07T09:45:37;101959.56;;;-9.01;67.11
71948;BME280;63257;55.082;38.772;2023-12-07T09:48:04;101932.44;;;-9.28;65.63
71948;BME280;63257;55.082;38.772;2023-12-07T09:50:30;101957.59;;;-9.06;65.30
71948;BME280;63257;55.082;38.772;2023-12-07T09:52:57;101965.38;;;-9.04;65.39
71948;BME280;63257;55.082;38.772;2023-12-07T09:55:24;101962.22;;;-9.15;65.87
71948;BME280;63257;55.082;38.772;2023-12-07T09:57:50;101963.09;;;-9.14;66.02
71948;BME280;63257;55.082;38.772;2023-12-07T10:00:17;101971.09;;;-9.08;66.09
71948;BME280;63257;55.082;38.772;2023-12-07T10:02:45;101953.81;;;-9.12;65.56
71948;BME280;63257;55.082;38.772;2023-12-07T10:05:13;101962.94;;;-9.02;65.26
71948;BME280;63257;55.082;38.772;2023-12-07T10:07:41;101959.03;;;-9.11;65.65
71948;BME280;63257;55.082;38.772;2023-12-07T10:10:07;101956.03;;;-9.04;65.25
71948;BME280;63257;55.082;38.772;2023-12-07T10:12:35;101960.72;;;-8.96;65.18
71948;BME280;63257;55.082;38.772;2023-12-07T10:15:11;101944.31;;;-9.15;65.08
71948;BME280;63257;55.082;38.772;2023-12-07T10:17:47;101963.19;;;-8.98;64.72
71948;BME280;63257;55.082;38.772;2023-12-07T10:20:15;101955.59;;;-8.96;64.90
71948;BME280;63257;55.082;38.772;2023-12-07T10:22:42;101933.53;;;-9.09;65.78
71948;BME280;63257;55.082;38.772;2023-12-07T10:25:09;101936.81;;;-9.12;64.94
71948;BME280;63257;55.082;38.772;2023-12-07T10:27:36;101949.03;;;-9.21;65.01
71948;BME280;63257;55.082;38.772;2023-12-07T10:30:05;101956.38;;;-9.12;65.68
71948;BME280;63257;55.082;38.772;2023-12-07T10:32:36;101934.69;;;-9.19;65.51
71948;BME280;63257;55.082;38.772;2023-12-07T10:35:04;101953.03;;;-9.11;65.08
71948;BME280;63257;55.082;38.772;2023-12-07T10:37:32;101938.63;;;-9.24;64.25
71948;BME280;63257;55.082;38.772;2023-12-07T10:39:58;101969.16;;;-9.12;64.71
71948;BME280;63257;55.082;38.772;2023-12-07T10:42:24;101947.09;;;-9.25;64.52
71948;BME280;63257;55.082;38.772;2023-12-07T10:44:55;101939.41;;;-9.25;64.13
71948;BME280;63257;55.082;38.772;2023-12-07T10:47:23;101950.44;;;-9.26;63.88
71948;BME280;63257;55.082;38.772;2023-12-07T10:49:54;101946.91;;;-9.28;64.74
71948;BME280;63257;55.082;38.772;2023-12-07T10:52:24;101949.56;;;-9.27;63.80
71948;BME280;63257;55.082;38.772;2023-12-07T10:57:25;101960.25;;;-9.19;64.73
71948;BME280;63257;55.082;38.772;2023-12-07T10:59:53;101963.75;;;-9.32;64.50
71948;BME280;63257;55.082;38.772;2023-12-07T11:02:21;101944.69;;;-9.37;64.77
71948;BME280;63257;55.082;38.772;2023-12-07T11:04:47;101960.66;;;-9.26;64.94
71948;BME280;63257;55.082;38.772;2023-12-07T11:07:18;101957.06;;;-9.30;64.86
71948;BME280;63257;55.082;38.772;2023-12-07T11:09:51;101959.34;;;-9.19;64.82
71948;BME280;63257;55.082;38.772;2023-12-07T11:12:36;101966.94;;;-9.21;64.35
71948;BME280;63257;55.082;38.772;2023-12-07T11:15:05;101947.53;;;-9.32;64.12
71948;BME280;63257;55.082;38.772;2023-12-07T11:17:47;101970.13;;;-9.25;64.36
71948;BME280;63257;55.082;38.772;2023-12-07T11:20:22;101966.50;;;-9.14;64.36
71948;BME280;63257;55.082;38.772;2023-12-07T11:22:57;101944.88;;;-9.34;63.96
71948;BME280;63257;55.082;38.772;2023-12-07T11:25:22;101943.56;;;-9.27;64.53
71948;BME280;63257;55.082;38.772;2023-12-07T11:28:00;101957.59;;;-9.21;64.84
71948;BME280;63257;55.082;38.772;2023-12-07T11:30:26;101929.44;;;-9.35;64.93
71948;BME280;63257;55.082;38.772;2023-12-07T11:32:52;101935.69;;;-9.30;64.65
71948;BME280;63257;55.082;38.772;2023-12-07T11:35:18;101958.50;;;-9.20;64.97
71948;BME280;63257;55.082;38.772;2023-12-07T11:38:03;101964.81;;;-9.28;65.03
71948;BME280;63257;55.082;38.772;2023-12-07T11:40:36;101969.41;;;-9.23;64.93
71948;BME280;63257;55.082;38.772;2023-12-07T11:43:02;101959.88;;;-9.25;64.82
71948;BME280;63257;55.082;38.772;2023-12-07T11:48:15;101954.75;;;-9.25;64.17
71948;BME280;63257;55.082;38.772;2023-12-07T11:51:00;101933.78;;;-9.19;63.75
71948;BME280;63257;55.082;38.772;2023-12-07T11:53:34;101952.19;;;-8.82;63.49
71948;BME280;63257;55.082;38.772;2023-12-07T11:56:02;101951.81;;;-8.73;62.53
71948;BME280;63257;55.082;38.772;2023-12-07T11:58:29;101933.25;;;-8.54;61.56
71948;BME280;63257;55.082;38.772;2023-12-07T12:00:56;101923.25;;;-8.49;61.21
71948;BME280;63257;55.082;38.772;2023-12-07T12:03:27;101953.69;;;-8.24;61.14
71948;BME280;63257;55.082;38.772;2023-12-07T12:05:53;101946.47;;;-8.15;60.89
71948;BME280;63257;55.082;38.772;2023-12-07T12:08:22;101938.50;;;-8.05;60.80
71948;BME280;63257;55.082;38.772;2023-12-07T12:10:50;101935.38;;;-7.99;60.89
71948;BME280;63257;55.082;38.772;2023-12-07T12:13:17;101950.97;;;-7.79;60.03
71948;BME280;63257;55.082;38.772;2023-12-07T12:15:45;101928.44;;;-7.85;59.38
71948;BME280;63257;55.082;38.772;2023-12-07T12:18:14;101959.22;;;-7.69;59.38
71948;BME280;63257;55.082;38.772;2023-12-07T12:20:44;101969.25;;;-7.73;60.05
71948;BME280;63257;55.082;38.772;2023-12-07T12:23:10;101960.25;;;-7.81;59.91
71948;BME280;63257;55.082;38.772;2023-12-07T12:25:36;101934.38;;;-8.18;60.46
71948;BME280;63257;55.082;38.772;2023-12-07T12:28:04;101958.41;;;-8.15;60.29
71948;BME280;63257;55.082;38.772;2023-12-07T12:30:31;101966.91;;;-8.31;61.11
71948;BME280;63257;55.082;38.772;2023-12-07T12:32:57;101962.88;;;-8.43;61.93
71948;BME280;63257;55.082;38.772;2023-12-07T12:35:25;101969.31;;;-8.35;62.15
71948;BME280;63257;55.082;38.772;2023-12-07T12:37:51;101976.69;;;-8.41;62.20
71948;BME280;63257;55.082;38.772;2023-12-07T12:40:19;101981.84;;;-8.56;62.07
71948;BME280;63257;55.082;38.772;2023-12-07T12:42:54;101960.38;;;-8.73;62.59
71948;BME280;63257;55.082;38.772;2023-12-07T12:45:20;101988.81;;;-8.53;62.13
71948;BME280;63257;55.082;38.772;2023-12-07T12:47:47;101989.22;;;-8.60;62.30